PWSweather.com
Personal Weather Stations
Station Observations
ITROMSHA6
HarstadNO 9407

HarstadNO 9407

Lat: 68.7814767, Lon: 16.5297091

Elevation: 145

Station Type: Davis Vantage Pro2

High Low Average
Temperature 52.9°F11.6°C 47.4°F8.6°C 49.4°F9.7°C
Dew Point 48.2°F9.0°C 45.3°F7.4°C 47.0°F8.3°C
Winds 7.0 mph 11.3 kmh Calm Calm 2.0 mph SW3.2 kmh SW
Wind Gusts 10.0 mph16.1 kmh -- 1.0 mph1.6 kmh
Humidity 95% 83% 91%
Pressure 30.00 in1015.9 mb 29.95 in1014.2 mb -
Precipitation 0.01 in0.3 mm - -
Hour Temp Dew Point Humidity Winds Wind Gusts Pressure Precip Precip Rate Daily Precip Total
12:00 AM 49.1°F9.5°C 47.5°F8.6°C 94% 2.0 mph WSW3.2 kmh WSW -- 29.96 in1014.6 mb 0.00 in0.0 mm 0.00 in0.0 mm 0.00 in0.0 mm
12:05 AM 49.1°F9.5°C 47.5°F8.6°C 94% 2.0 mph SW3.2 kmh SW -- 29.96 in1014.6 mb 0.00 in0.0 mm 0.00 in0.0 mm 0.00 in0.0 mm
12:10 AM 49.1°F9.5°C 47.5°F8.6°C 94% Calm Calm -- 29.96 in1014.6 mb 0.00 in0.0 mm 0.00 in0.0 mm 0.00 in0.0 mm
12:15 AM 49.1°F9.5°C 47.5°F8.6°C 94% Calm Calm 4.0 mph6.4 kmh 29.96 in1014.6 mb 0.00 in0.0 mm 0.00 in0.0 mm 0.00 in0.0 mm
12:20 AM 49.1°F9.5°C 47.5°F8.6°C 94% Calm Calm -- 29.96 in1014.6 mb 0.00 in0.0 mm 0.00 in0.0 mm 0.00 in0.0 mm
12:25 AM 49.1°F9.5°C 47.5°F8.6°C 94% Calm Calm -- 29.96 in1014.6 mb 0.00 in0.0 mm 0.00 in0.0 mm 0.00 in0.0 mm
12:30 AM 49.1°F9.5°C 47.5°F8.6°C 94% Calm Calm -- 29.96 in1014.6 mb 0.00 in0.0 mm 0.00 in0.0 mm 0.00 in0.0 mm
12:35 AM 49.0°F9.4°C 47.3°F8.5°C 94% Calm Calm -- 29.96 in1014.6 mb 0.00 in0.0 mm 0.00 in0.0 mm 0.00 in0.0 mm
12:40 AM 48.9°F9.4°C 47.3°F8.5°C 94% Calm Calm 1.0 mph1.6 kmh 29.96 in1014.6 mb 0.00 in0.0 mm 0.00 in0.0 mm 0.00 in0.0 mm
12:45 AM 48.9°F9.4°C 47.3°F8.5°C 94% Calm Calm -- 29.96 in1014.6 mb 0.00 in0.0 mm 0.00 in0.0 mm 0.00 in0.0 mm
12:50 AM 48.9°F9.4°C 47.3°F8.5°C 94% Calm Calm -- 29.96 in1014.6 mb 0.00 in0.0 mm 0.00 in0.0 mm 0.00 in0.0 mm
12:55 AM 48.8°F9.3°C 47.1°F8.4°C 94% 2.0 mph NW3.2 kmh NW -- 29.96 in1014.6 mb 0.00 in0.0 mm 0.00 in0.0 mm 0.00 in0.0 mm
01:00 AM 48.9°F9.4°C 47.3°F8.5°C 94% Calm Calm -- 29.97 in1014.9 mb 0.00 in0.0 mm 0.00 in0.0 mm 0.00 in0.0 mm
01:05 AM 48.9°F9.4°C 47.3°F8.5°C 94% Calm Calm 2.0 mph3.2 kmh 29.97 in1014.9 mb 0.00 in0.0 mm 0.00 in0.0 mm 0.00 in0.0 mm
01:10 AM 48.8°F9.3°C 47.1°F8.4°C 94% Calm Calm -- 29.96 in1014.6 mb 0.00 in0.0 mm 0.00 in0.0 mm 0.00 in0.0 mm
01:15 AM 48.6°F9.2°C 46.9°F8.3°C 94% Calm Calm -- 29.97 in1014.9 mb 0.00 in0.0 mm 0.00 in0.0 mm 0.00 in0.0 mm
01:20 AM 48.6°F9.2°C 46.9°F8.3°C 94% 1.0 mph NW1.6 kmh NW -- 29.97 in1014.9 mb 0.00 in0.0 mm 0.00 in0.0 mm 0.00 in0.0 mm
01:25 AM 48.7°F9.3°C 47.3°F8.5°C 95% 2.0 mph NW3.2 kmh NW -- 29.97 in1014.9 mb 0.00 in0.0 mm 0.00 in0.0 mm 0.00 in0.0 mm
01:30 AM 48.8°F9.3°C 47.3°F8.5°C 95% 2.0 mph WSW3.2 kmh WSW 4.0 mph6.4 kmh 29.97 in1014.9 mb 0.00 in0.0 mm 0.00 in0.0 mm 0.00 in0.0 mm
01:35 AM 48.8°F9.3°C 47.3°F8.5°C 95% 2.0 mph WSW3.2 kmh WSW -- 29.97 in1014.9 mb 0.00 in0.0 mm 0.00 in0.0 mm 0.00 in0.0 mm
01:40 AM 48.8°F9.3°C 47.3°F8.5°C 95% 2.0 mph SW3.2 kmh SW -- 29.97 in1014.9 mb 0.00 in0.0 mm 0.00 in0.0 mm 0.00 in0.0 mm
01:45 AM 48.8°F9.3°C 47.3°F8.5°C 95% 2.0 mph WSW3.2 kmh WSW -- 29.97 in1014.9 mb 0.00 in0.0 mm 0.00 in0.0 mm 0.00 in0.0 mm
01:50 AM 48.8°F9.3°C 47.3°F8.5°C 95% 2.0 mph WSW3.2 kmh WSW -- 29.97 in1014.9 mb 0.01 in0.3 mm 0.12 in3.0 mm 0.01 in0.3 mm
01:55 AM 48.8°F9.3°C 47.3°F8.5°C 95% 2.0 mph SW3.2 kmh SW 3.0 mph4.8 kmh 29.97 in1014.9 mb 0.01 in0.3 mm 0.00 in0.0 mm 0.01 in0.3 mm
02:00 AM 48.8°F9.3°C 47.3°F8.5°C 95% 1.0 mph SW1.6 kmh SW -- 29.97 in1014.9 mb 0.01 in0.3 mm 0.00 in0.0 mm 0.01 in0.3 mm
02:05 AM 48.8°F9.3°C 47.3°F8.5°C 95% 2.0 mph WSW3.2 kmh WSW -- 29.97 in1014.9 mb 0.01 in0.3 mm 0.00 in0.0 mm 0.01 in0.3 mm
02:10 AM 48.8°F9.3°C 47.3°F8.5°C 95% 1.0 mph WSW1.6 kmh WSW -- 29.97 in1014.9 mb 0.01 in0.3 mm 0.00 in0.0 mm 0.01 in0.3 mm
02:15 AM 48.7°F9.3°C 47.3°F8.5°C 95% 3.0 mph WSW4.8 kmh WSW -- 29.96 in1014.6 mb 0.01 in0.3 mm 0.00 in0.0 mm 0.01 in0.3 mm
02:20 AM 48.7°F9.3°C 47.3°F8.5°C 95% 3.0 mph SW4.8 kmh SW 6.0 mph9.7 kmh 29.97 in1014.9 mb 0.01 in0.3 mm 0.00 in0.0 mm 0.01 in0.3 mm
02:25 AM 48.8°F9.3°C 47.3°F8.5°C 95% 2.0 mph WSW3.2 kmh WSW -- 29.96 in1014.6 mb 0.01 in0.3 mm 0.00 in0.0 mm 0.01 in0.3 mm
02:30 AM 48.7°F9.3°C 47.3°F8.5°C 95% Calm Calm -- 29.96 in1014.6 mb 0.01 in0.3 mm 0.00 in0.0 mm 0.01 in0.3 mm
02:35 AM 48.7°F9.3°C 47.3°F8.5°C 95% Calm Calm -- 29.96 in1014.6 mb 0.01 in0.3 mm 0.00 in0.0 mm 0.01 in0.3 mm
02:40 AM 48.7°F9.3°C 47.1°F8.4°C 94% Calm Calm -- 29.96 in1014.6 mb 0.01 in0.3 mm 0.00 in0.0 mm 0.01 in0.3 mm
02:45 AM 48.7°F9.3°C 47.1°F8.4°C 94% Calm Calm 2.0 mph3.2 kmh 29.97 in1014.9 mb 0.01 in0.3 mm 0.00 in0.0 mm 0.01 in0.3 mm
02:50 AM 48.6°F9.2°C 46.9°F8.3°C 94% Calm Calm -- 29.96 in1014.6 mb 0.00 in0.0 mm 0.00 in0.0 mm 0.01 in0.3 mm
02:55 AM 48.6°F9.2°C 46.9°F8.3°C 94% Calm Calm -- 29.97 in1014.9 mb 0.00 in0.0 mm 0.00 in0.0 mm 0.01 in0.3 mm
03:00 AM 48.5°F9.2°C 46.9°F8.3°C 94% Calm Calm -- 29.97 in1014.9 mb 0.00 in0.0 mm 0.00 in0.0 mm 0.01 in0.3 mm
03:05 AM 48.4°F9.1°C 46.8°F8.2°C 94% Calm Calm -- 29.97 in1014.9 mb 0.00 in0.0 mm 0.00 in0.0 mm 0.01 in0.3 mm
03:10 AM 48.3°F9.1°C 46.8°F8.2°C 94% Calm Calm 1.0 mph1.6 kmh 29.97 in1014.9 mb 0.00 in0.0 mm 0.00 in0.0 mm 0.01 in0.3 mm
03:15 AM 48.3°F9.1°C 46.8°F8.2°C 94% Calm Calm -- 29.97 in1014.9 mb 0.00 in0.0 mm 0.00 in0.0 mm 0.01 in0.3 mm
03:20 AM 48.3°F9.1°C 46.8°F8.2°C 94% Calm Calm -- 29.97 in1014.9 mb 0.00 in0.0 mm 0.00 in0.0 mm 0.01 in0.3 mm
03:25 AM 48.2°F9.0°C 46.6°F8.1°C 94% Calm Calm -- 29.97 in1014.9 mb 0.00 in0.0 mm 0.00 in0.0 mm 0.01 in0.3 mm
03:30 AM 48.1°F8.9°C 46.4°F8.0°C 94% Calm Calm -- 29.97 in1014.9 mb 0.00 in0.0 mm 0.00 in0.0 mm 0.01 in0.3 mm
03:35 AM 48.1°F8.9°C 46.6°F8.1°C 95% Calm Calm 2.0 mph3.2 kmh 29.97 in1014.9 mb 0.00 in0.0 mm 0.00 in0.0 mm 0.01 in0.3 mm
03:40 AM 48.1°F8.9°C 46.6°F8.1°C 95% Calm Calm -- 29.97 in1014.9 mb 0.00 in0.0 mm 0.00 in0.0 mm 0.01 in0.3 mm
03:45 AM 48.1°F8.9°C 46.6°F8.1°C 95% Calm Calm -- 29.97 in1014.9 mb 0.00 in0.0 mm 0.00 in0.0 mm 0.01 in0.3 mm
03:50 AM 48.1°F8.9°C 46.6°F8.1°C 95% Calm Calm -- 29.97 in1014.9 mb 0.00 in0.0 mm 0.00 in0.0 mm 0.01 in0.3 mm
03:55 AM 48.0°F8.9°C 46.6°F8.1°C 95% 2.0 mph SW3.2 kmh SW -- 29.97 in1014.9 mb 0.00 in0.0 mm 0.00 in0.0 mm 0.01 in0.3 mm
04:00 AM 47.9°F8.8°C 46.4°F8.0°C 95% 2.0 mph SW3.2 kmh SW 3.0 mph4.8 kmh 29.97 in1014.9 mb 0.00 in0.0 mm 0.00 in0.0 mm 0.01 in0.3 mm
04:05 AM 47.9°F8.8°C 46.4°F8.0°C 95% 1.0 mph WSW1.6 kmh WSW -- 29.97 in1014.9 mb 0.00 in0.0 mm 0.00 in0.0 mm 0.01 in0.3 mm
04:10 AM 47.8°F8.8°C 46.4°F8.0°C 95% 1.0 mph WSW1.6 kmh WSW -- 29.97 in1014.9 mb 0.00 in0.0 mm 0.00 in0.0 mm 0.01 in0.3 mm
04:15 AM 47.8°F8.8°C 46.4°F8.0°C 95% 4.0 mph WSW6.4 kmh WSW -- 29.97 in1014.9 mb 0.00 in0.0 mm 0.00 in0.0 mm 0.01 in0.3 mm
04:20 AM 47.8°F8.8°C 46.4°F8.0°C 95% 3.0 mph WSW4.8 kmh WSW -- 29.97 in1014.9 mb 0.00 in0.0 mm 0.00 in0.0 mm 0.01 in0.3 mm
04:25 AM 47.7°F8.7°C 46.2°F7.9°C 95% 2.0 mph WSW3.2 kmh WSW 5.0 mph8.0 kmh 29.97 in1014.9 mb 0.00 in0.0 mm 0.00 in0.0 mm 0.01 in0.3 mm
04:30 AM 47.7°F8.7°C 46.2°F7.9°C 95% 1.0 mph WSW1.6 kmh WSW -- 29.97 in1014.9 mb 0.00 in0.0 mm 0.00 in0.0 mm 0.01 in0.3 mm
04:35 AM 47.7°F8.7°C 46.2°F7.9°C 95% Calm Calm -- 29.96 in1014.6 mb 0.00 in0.0 mm 0.00 in0.0 mm 0.01 in0.3 mm
04:40 AM 47.7°F8.7°C 46.2°F7.9°C 95% 2.0 mph WSW3.2 kmh WSW -- 29.96 in1014.6 mb 0.00 in0.0 mm 0.00 in0.0 mm 0.01 in0.3 mm
04:45 AM 47.8°F8.8°C 46.4°F8.0°C 95% 1.0 mph WSW1.6 kmh WSW -- 29.96 in1014.6 mb 0.00 in0.0 mm 0.00 in0.0 mm 0.01 in0.3 mm
04:50 AM 47.8°F8.8°C 46.2°F7.9°C 94% Calm Calm 3.0 mph4.8 kmh 29.97 in1014.9 mb 0.00 in0.0 mm 0.00 in0.0 mm 0.01 in0.3 mm
04:55 AM 47.8°F8.8°C 46.2°F7.9°C 94% Calm Calm -- 29.96 in1014.6 mb 0.00 in0.0 mm 0.00 in0.0 mm 0.01 in0.3 mm
05:00 AM 47.8°F8.8°C 46.2°F7.9°C 94% 2.0 mph WSW3.2 kmh WSW -- 29.96 in1014.6 mb 0.00 in0.0 mm 0.00 in0.0 mm 0.01 in0.3 mm
05:05 AM 47.7°F8.7°C 46.0°F7.8°C 94% Calm Calm -- 29.96 in1014.6 mb 0.00 in0.0 mm 0.00 in0.0 mm 0.01 in0.3 mm
05:10 AM 47.7°F8.7°C 46.0°F7.8°C 94% Calm Calm -- 29.97 in1014.9 mb 0.00 in0.0 mm 0.00 in0.0 mm 0.01 in0.3 mm
05:15 AM 47.6°F8.7°C 46.0°F7.8°C 94% 1.0 mph WSW1.6 kmh WSW 2.0 mph3.2 kmh 29.97 in1014.9 mb 0.00 in0.0 mm 0.00 in0.0 mm 0.01 in0.3 mm
05:20 AM 47.6°F8.7°C 46.0°F7.8°C 94% 1.0 mph WSW1.6 kmh WSW -- 29.96 in1014.6 mb 0.00 in0.0 mm 0.00 in0.0 mm 0.01 in0.3 mm
05:25 AM 47.7°F8.7°C 46.0°F7.8°C 94% Calm Calm -- 29.97 in1014.9 mb 0.00 in0.0 mm 0.00 in0.0 mm 0.01 in0.3 mm
05:30 AM 47.6°F8.7°C 46.0°F7.8°C 94% Calm Calm -- 29.97 in1014.9 mb 0.00 in0.0 mm 0.00 in0.0 mm 0.01 in0.3 mm
05:35 AM 47.5°F8.6°C 45.9°F7.7°C 94% 1.0 mph WSW1.6 kmh WSW -- 29.97 in1014.9 mb 0.00 in0.0 mm 0.00 in0.0 mm 0.01 in0.3 mm
05:40 AM 47.5°F8.6°C 45.9°F7.7°C 94% 2.0 mph WSW3.2 kmh WSW 3.0 mph4.8 kmh 29.97 in1014.9 mb 0.00 in0.0 mm 0.00 in0.0 mm 0.01 in0.3 mm
05:45 AM 47.5°F8.6°C 45.9°F7.7°C 94% 2.0 mph WSW3.2 kmh WSW -- 29.97 in1014.9 mb 0.00 in0.0 mm 0.00 in0.0 mm 0.01 in0.3 mm
05:50 AM 47.5°F8.6°C 45.9°F7.7°C 94% 2.0 mph WSW3.2 kmh WSW -- 29.97 in1014.9 mb 0.00 in0.0 mm 0.00 in0.0 mm 0.01 in0.3 mm
05:55 AM 47.5°F8.6°C 45.9°F7.7°C 94% 2.0 mph WSW3.2 kmh WSW -- 29.97 in1014.9 mb 0.00 in0.0 mm 0.00 in0.0 mm 0.01 in0.3 mm
06:00 AM 47.5°F8.6°C 45.9°F7.7°C 94% Calm Calm -- 29.97 in1014.9 mb 0.00 in0.0 mm 0.00 in0.0 mm 0.01 in0.3 mm
06:05 AM 47.5°F8.6°C 45.9°F7.7°C 94% 1.0 mph WSW1.6 kmh WSW 3.0 mph4.8 kmh 29.97 in1014.9 mb 0.00 in0.0 mm 0.00 in0.0 mm 0.01 in0.3 mm
06:10 AM 47.5°F8.6°C 45.9°F7.7°C 94% Calm Calm -- 29.97 in1014.9 mb 0.00 in0.0 mm 0.00 in0.0 mm 0.01 in0.3 mm
06:15 AM 47.5°F8.6°C 45.9°F7.7°C 94% Calm Calm -- 29.97 in1014.9 mb 0.00 in0.0 mm 0.00 in0.0 mm 0.01 in0.3 mm
06:20 AM 47.5°F8.6°C 45.9°F7.7°C 94% 1.0 mph WSW1.6 kmh WSW -- 29.97 in1014.9 mb 0.00 in0.0 mm 0.00 in0.0 mm 0.01 in0.3 mm
06:25 AM 47.4°F8.6°C 45.9°F7.7°C 94% 1.0 mph WSW1.6 kmh WSW -- 29.97 in1014.9 mb 0.00 in0.0 mm 0.00 in0.0 mm 0.01 in0.3 mm
06:30 AM 47.6°F8.7°C 46.0°F7.8°C 94% 1.0 mph WSW1.6 kmh WSW 3.0 mph4.8 kmh 29.97 in1014.9 mb 0.00 in0.0 mm 0.00 in0.0 mm 0.01 in0.3 mm
06:35 AM 47.6°F8.7°C 46.0°F7.8°C 94% Calm Calm -- 29.98 in1015.2 mb 0.00 in0.0 mm 0.00 in0.0 mm 0.01 in0.3 mm
06:40 AM 47.5°F8.6°C 45.9°F7.7°C 94% Calm Calm -- 29.98 in1015.2 mb 0.00 in0.0 mm 0.00 in0.0 mm 0.01 in0.3 mm
06:45 AM 47.5°F8.6°C 45.9°F7.7°C 94% 1.0 mph WSW1.6 kmh WSW -- 29.98 in1015.2 mb 0.00 in0.0 mm 0.00 in0.0 mm 0.01 in0.3 mm
06:50 AM 47.4°F8.6°C 45.9°F7.7°C 94% 2.0 mph WSW3.2 kmh WSW -- 29.98 in1015.2 mb 0.00 in0.0 mm 0.00 in0.0 mm 0.01 in0.3 mm
06:55 AM 47.5°F8.6°C 45.9°F7.7°C 94% 1.0 mph W1.6 kmh W 3.0 mph4.8 kmh 29.98 in1015.2 mb 0.00 in0.0 mm 0.00 in0.0 mm 0.01 in0.3 mm
07:00 AM 47.6°F8.7°C 46.0°F7.8°C 94% 3.0 mph WSW4.8 kmh WSW -- 29.98 in1015.2 mb 0.00 in0.0 mm 0.00 in0.0 mm 0.01 in0.3 mm
07:05 AM 47.6°F8.7°C 46.0°F7.8°C 94% 1.0 mph W1.6 kmh W -- 29.98 in1015.2 mb 0.00 in0.0 mm 0.00 in0.0 mm 0.01 in0.3 mm
07:10 AM 47.6°F8.7°C 46.0°F7.8°C 94% Calm Calm -- 29.98 in1015.2 mb 0.00 in0.0 mm 0.00 in0.0 mm 0.01 in0.3 mm
07:15 AM 47.6°F8.7°C 46.0°F7.8°C 94% Calm Calm -- 29.98 in1015.2 mb 0.00 in0.0 mm 0.00 in0.0 mm 0.01 in0.3 mm
07:20 AM 47.7°F8.7°C 46.0°F7.8°C 94% 2.0 mph W3.2 kmh W 2.0 mph3.2 kmh 29.98 in1015.2 mb 0.00 in0.0 mm 0.00 in0.0 mm 0.01 in0.3 mm
07:25 AM 47.7°F8.7°C 46.0°F7.8°C 94% Calm Calm -- 29.98 in1015.2 mb 0.00 in0.0 mm 0.00 in0.0 mm 0.01 in0.3 mm
07:30 AM 47.8°F8.8°C 46.2°F7.9°C 94% Calm Calm -- 29.98 in1015.2 mb 0.00 in0.0 mm 0.00 in0.0 mm 0.01 in0.3 mm
07:35 AM 47.8°F8.8°C 46.2°F7.9°C 94% 2.0 mph W3.2 kmh W -- 29.98 in1015.2 mb 0.00 in0.0 mm 0.00 in0.0 mm 0.01 in0.3 mm
07:40 AM 47.9°F8.8°C 46.2°F7.9°C 94% 2.0 mph W3.2 kmh W -- 29.98 in1015.2 mb 0.00 in0.0 mm 0.00 in0.0 mm 0.01 in0.3 mm
07:45 AM 48.0°F8.9°C 46.4°F8.0°C 94% Calm Calm 2.0 mph3.2 kmh 29.98 in1015.2 mb 0.00 in0.0 mm 0.00 in0.0 mm 0.01 in0.3 mm
07:50 AM 48.1°F8.9°C 46.4°F8.0°C 94% 1.0 mph W1.6 kmh W -- 29.98 in1015.2 mb 0.00 in0.0 mm 0.00 in0.0 mm 0.01 in0.3 mm
07:55 AM 48.2°F9.0°C 46.6°F8.1°C 94% 1.0 mph W1.6 kmh W -- 29.98 in1015.2 mb 0.00 in0.0 mm 0.00 in0.0 mm 0.01 in0.3 mm
08:00 AM 48.3°F9.1°C 46.8°F8.2°C 94% Calm Calm -- 29.98 in1015.2 mb 0.00 in0.0 mm 0.00 in0.0 mm 0.01 in0.3 mm
08:05 AM 48.4°F9.1°C 46.8°F8.2°C 94% Calm Calm -- 29.99 in1015.6 mb 0.00 in0.0 mm 0.00 in0.0 mm 0.01 in0.3 mm
08:10 AM 48.5°F9.2°C 46.9°F8.3°C 94% Calm Calm -- 29.99 in1015.6 mb 0.00 in0.0 mm 0.00 in0.0 mm 0.01 in0.3 mm
08:15 AM 48.5°F9.2°C 46.9°F8.3°C 94% Calm Calm -- 29.99 in1015.6 mb 0.00 in0.0 mm 0.00 in0.0 mm 0.01 in0.3 mm
08:20 AM 48.6°F9.2°C 46.9°F8.3°C 94% Calm Calm -- 29.99 in1015.6 mb 0.00 in0.0 mm 0.00 in0.0 mm 0.01 in0.3 mm
08:25 AM 48.6°F9.2°C 46.9°F8.3°C 94% Calm Calm -- 29.99 in1015.6 mb 0.00 in0.0 mm 0.00 in0.0 mm 0.01 in0.3 mm
08:30 AM 48.6°F9.2°C 46.9°F8.3°C 94% Calm Calm -- 29.99 in1015.6 mb 0.00 in0.0 mm 0.00 in0.0 mm 0.01 in0.3 mm
08:35 AM 48.6°F9.2°C 46.9°F8.3°C 94% Calm Calm -- 29.99 in1015.6 mb 0.00 in0.0 mm 0.00 in0.0 mm 0.01 in0.3 mm
08:40 AM 48.6°F9.2°C 46.9°F8.3°C 94% Calm Calm -- 29.99 in1015.6 mb 0.00 in0.0 mm 0.00 in0.0 mm 0.01 in0.3 mm
08:45 AM 48.7°F9.3°C 47.1°F8.4°C 94% Calm Calm -- 29.99 in1015.6 mb 0.00 in0.0 mm 0.00 in0.0 mm 0.01 in0.3 mm
08:50 AM 48.7°F9.3°C 47.1°F8.4°C 94% Calm Calm -- 29.99 in1015.6 mb 0.00 in0.0 mm 0.00 in0.0 mm 0.01 in0.3 mm
08:55 AM 48.8°F9.3°C 47.1°F8.4°C 94% Calm Calm -- 29.99 in1015.6 mb 0.00 in0.0 mm 0.00 in0.0 mm 0.01 in0.3 mm
09:00 AM 48.9°F9.4°C 47.3°F8.5°C 94% Calm Calm 1.0 mph1.6 kmh 29.99 in1015.6 mb 0.00 in0.0 mm 0.00 in0.0 mm 0.01 in0.3 mm
09:05 AM 49.0°F9.4°C 47.3°F8.5°C 94% Calm Calm -- 29.99 in1015.6 mb 0.00 in0.0 mm 0.00 in0.0 mm 0.01 in0.3 mm
09:10 AM 49.1°F9.5°C 47.5°F8.6°C 94% Calm Calm -- 29.99 in1015.6 mb 0.00 in0.0 mm 0.00 in0.0 mm 0.01 in0.3 mm
09:15 AM 49.2°F9.6°C 47.7°F8.7°C 94% Calm Calm -- 29.99 in1015.6 mb 0.00 in0.0 mm 0.00 in0.0 mm 0.01 in0.3 mm
09:20 AM 49.4°F9.7°C 47.8°F8.8°C 94% Calm Calm -- 29.99 in1015.6 mb 0.00 in0.0 mm 0.00 in0.0 mm 0.01 in0.3 mm
09:25 AM 49.5°F9.7°C 47.8°F8.8°C 94% Calm Calm -- 29.99 in1015.6 mb 0.00 in0.0 mm 0.00 in0.0 mm 0.01 in0.3 mm
09:30 AM 49.5°F9.7°C 47.8°F8.8°C 94% Calm Calm -- 29.99 in1015.6 mb 0.00 in0.0 mm 0.00 in0.0 mm 0.01 in0.3 mm
09:35 AM 49.6°F9.8°C 48.0°F8.9°C 94% Calm Calm -- 29.99 in1015.6 mb 0.00 in0.0 mm 0.00 in0.0 mm 0.01 in0.3 mm
09:40 AM 49.8°F9.9°C 48.2°F9.0°C 94% Calm Calm -- 29.99 in1015.6 mb 0.00 in0.0 mm 0.00 in0.0 mm 0.01 in0.3 mm
09:45 AM 49.9°F9.9°C 48.2°F9.0°C 94% Calm Calm -- 29.99 in1015.6 mb 0.00 in0.0 mm 0.00 in0.0 mm 0.01 in0.3 mm
09:50 AM 49.9°F9.9°C 47.8°F8.8°C 93% 1.0 mph WNW1.6 kmh WNW 2.0 mph3.2 kmh 29.99 in1015.6 mb 0.00 in0.0 mm 0.00 in0.0 mm 0.01 in0.3 mm
09:55 AM 50.0°F10.0°C 48.0°F8.9°C 93% Calm Calm -- 30.00 in1015.9 mb 0.00 in0.0 mm 0.00 in0.0 mm 0.01 in0.3 mm
10:00 AM 50.1°F10.1°C 48.2°F9.0°C 93% Calm Calm -- 29.99 in1015.6 mb 0.00 in0.0 mm 0.00 in0.0 mm 0.01 in0.3 mm
10:05 AM 50.1°F10.1°C 48.2°F9.0°C 93% Calm Calm -- 30.00 in1015.9 mb 0.00 in0.0 mm 0.00 in0.0 mm 0.01 in0.3 mm
10:10 AM 50.0°F10.0°C 48.0°F8.9°C 93% 2.0 mph NE3.2 kmh NE -- 29.99 in1015.6 mb 0.00 in0.0 mm 0.00 in0.0 mm 0.01 in0.3 mm
10:15 AM 50.1°F10.1°C 48.2°F9.0°C 93% 1.0 mph NE1.6 kmh NE 4.0 mph6.4 kmh 29.99 in1015.6 mb 0.00 in0.0 mm 0.00 in0.0 mm 0.01 in0.3 mm
10:20 AM 50.1°F10.1°C 48.0°F8.9°C 92% 3.0 mph NE4.8 kmh NE -- 29.99 in1015.6 mb 0.00 in0.0 mm 0.00 in0.0 mm 0.01 in0.3 mm
10:25 AM 50.1°F10.1°C 48.0°F8.9°C 92% 1.0 mph N1.6 kmh N -- 29.99 in1015.6 mb 0.00 in0.0 mm 0.00 in0.0 mm 0.01 in0.3 mm
10:30 AM 50.3°F10.2°C 47.8°F8.8°C 91% Calm Calm -- 29.99 in1015.6 mb 0.00 in0.0 mm 0.00 in0.0 mm 0.01 in0.3 mm
10:35 AM 50.4°F10.2°C 47.8°F8.8°C 91% 1.0 mph NE1.6 kmh NE -- 29.99 in1015.6 mb 0.00 in0.0 mm 0.00 in0.0 mm 0.01 in0.3 mm
10:40 AM 50.4°F10.2°C 47.5°F8.6°C 90% Calm Calm 5.0 mph8.0 kmh 29.99 in1015.6 mb 0.00 in0.0 mm 0.00 in0.0 mm 0.01 in0.3 mm
10:45 AM 50.5°F10.3°C 48.0°F8.9°C 91% 1.0 mph NE1.6 kmh NE -- 29.99 in1015.6 mb 0.00 in0.0 mm 0.00 in0.0 mm 0.01 in0.3 mm
10:50 AM 50.7°F10.4°C 47.8°F8.8°C 90% 2.0 mph NE3.2 kmh NE -- 29.99 in1015.6 mb 0.00 in0.0 mm 0.00 in0.0 mm 0.01 in0.3 mm
10:55 AM 50.8°F10.4°C 47.8°F8.8°C 90% Calm Calm -- 29.99 in1015.6 mb 0.00 in0.0 mm 0.00 in0.0 mm 0.01 in0.3 mm
11:00 AM 51.3°F10.7°C 48.2°F9.0°C 89% 2.0 mph NNE3.2 kmh NNE -- 29.99 in1015.6 mb 0.00 in0.0 mm 0.00 in0.0 mm 0.01 in0.3 mm
11:05 AM 51.4°F10.8°C 48.0°F8.9°C 88% 5.0 mph NE8.0 kmh NE 5.0 mph8.0 kmh 29.99 in1015.6 mb 0.00 in0.0 mm 0.00 in0.0 mm 0.01 in0.3 mm
11:10 AM 51.4°F10.8°C 48.0°F8.9°C 88% 2.0 mph NE3.2 kmh NE -- 29.99 in1015.6 mb 0.00 in0.0 mm 0.00 in0.0 mm 0.01 in0.3 mm
11:15 AM 51.4°F10.8°C 47.7°F8.7°C 87% 2.0 mph NNE3.2 kmh NNE -- 29.99 in1015.6 mb 0.00 in0.0 mm 0.00 in0.0 mm 0.01 in0.3 mm
11:20 AM 51.6°F10.9°C 47.8°F8.8°C 87% 5.0 mph N8.0 kmh N -- 29.99 in1015.6 mb 0.00 in0.0 mm 0.00 in0.0 mm 0.01 in0.3 mm
11:25 AM 51.7°F10.9°C 47.8°F8.8°C 87% 3.0 mph E4.8 kmh E -- 29.99 in1015.6 mb 0.00 in0.0 mm 0.00 in0.0 mm 0.01 in0.3 mm
11:30 AM 51.5°F10.8°C 47.7°F8.7°C 87% 4.0 mph ENE6.4 kmh ENE 7.0 mph11.3 kmh 29.99 in1015.6 mb 0.00 in0.0 mm 0.00 in0.0 mm 0.01 in0.3 mm
11:35 AM 51.5°F10.8°C 48.0°F8.9°C 88% 4.0 mph ENE6.4 kmh ENE -- 29.99 in1015.6 mb 0.00 in0.0 mm 0.00 in0.0 mm 0.01 in0.3 mm
11:40 AM 51.5°F10.8°C 47.7°F8.7°C 87% 5.0 mph ENE8.0 kmh ENE -- 29.99 in1015.6 mb 0.00 in0.0 mm 0.00 in0.0 mm 0.01 in0.3 mm
11:45 AM 51.5°F10.8°C 47.7°F8.7°C 87% 6.0 mph NE9.7 kmh NE -- 29.99 in1015.6 mb 0.00 in0.0 mm 0.00 in0.0 mm 0.01 in0.3 mm
11:50 AM 51.6°F10.9°C 47.5°F8.6°C 86% 3.0 mph NE4.8 kmh NE -- 29.99 in1015.6 mb 0.00 in0.0 mm 0.00 in0.0 mm 0.01 in0.3 mm
11:55 AM 51.6°F10.9°C 47.5°F8.6°C 86% 3.0 mph ENE4.8 kmh ENE 6.0 mph9.7 kmh 29.99 in1015.6 mb 0.00 in0.0 mm 0.00 in0.0 mm 0.01 in0.3 mm
12:00 PM 51.7°F10.9°C 47.5°F8.6°C 86% 1.0 mph NE1.6 kmh NE -- 30.00 in1015.9 mb 0.00 in0.0 mm 0.00 in0.0 mm 0.01 in0.3 mm
12:05 PM 51.9°F11.1°C 47.8°F8.8°C 86% 7.0 mph NE11.3 kmh NE -- 30.00 in1015.9 mb 0.00 in0.0 mm 0.00 in0.0 mm 0.01 in0.3 mm
12:10 PM 51.7°F10.9°C 47.3°F8.5°C 85% 7.0 mph NE11.3 kmh NE -- 29.99 in1015.6 mb 0.00 in0.0 mm 0.00 in0.0 mm 0.01 in0.3 mm
12:15 PM 51.8°F11.0°C 47.5°F8.6°C 85% 2.0 mph NE3.2 kmh NE -- 29.99 in1015.6 mb 0.00 in0.0 mm 0.00 in0.0 mm 0.01 in0.3 mm
12:20 PM 52.0°F11.1°C 47.7°F8.7°C 85% 5.0 mph ENE8.0 kmh ENE 10.0 mph16.1 kmh 29.99 in1015.6 mb 0.00 in0.0 mm 0.00 in0.0 mm 0.01 in0.3 mm
12:25 PM 52.1°F11.2°C 47.8°F8.8°C 85% 5.0 mph NE8.0 kmh NE -- 29.99 in1015.6 mb 0.00 in0.0 mm 0.00 in0.0 mm 0.01 in0.3 mm
12:30 PM 52.0°F11.1°C 47.8°F8.8°C 86% 4.0 mph ENE6.4 kmh ENE -- 29.99 in1015.6 mb 0.00 in0.0 mm 0.00 in0.0 mm 0.01 in0.3 mm
12:35 PM 51.9°F11.1°C 48.2°F9.0°C 87% 5.0 mph ENE8.0 kmh ENE -- 29.99 in1015.6 mb 0.00 in0.0 mm 0.00 in0.0 mm 0.01 in0.3 mm
12:40 PM 51.9°F11.1°C 48.2°F9.0°C 87% 4.0 mph ENE6.4 kmh ENE -- 29.99 in1015.6 mb 0.00 in0.0 mm 0.00 in0.0 mm 0.01 in0.3 mm
12:45 PM 51.8°F11.0°C 48.0°F8.9°C 87% 7.0 mph NE11.3 kmh NE 8.0 mph12.9 kmh 29.99 in1015.6 mb 0.00 in0.0 mm 0.00 in0.0 mm 0.01 in0.3 mm
12:50 PM 51.8°F11.0°C 48.0°F8.9°C 87% 6.0 mph NE9.7 kmh NE -- 29.99 in1015.6 mb 0.00 in0.0 mm 0.00 in0.0 mm 0.01 in0.3 mm
12:55 PM 51.7°F10.9°C 47.8°F8.8°C 87% 5.0 mph NE8.0 kmh NE -- 29.99 in1015.6 mb 0.00 in0.0 mm 0.00 in0.0 mm 0.01 in0.3 mm
01:00 PM 51.7°F10.9°C 47.8°F8.8°C 87% 5.0 mph NE8.0 kmh NE -- 29.99 in1015.6 mb 0.00 in0.0 mm 0.00 in0.0 mm 0.01 in0.3 mm
01:05 PM 51.8°F11.0°C 48.0°F8.9°C 87% 7.0 mph NE11.3 kmh NE -- 29.99 in1015.6 mb 0.00 in0.0 mm 0.00 in0.0 mm 0.01 in0.3 mm
01:10 PM 51.9°F11.1°C 48.2°F9.0°C 87% 4.0 mph NE6.4 kmh NE 8.0 mph12.9 kmh 29.99 in1015.6 mb 0.00 in0.0 mm 0.00 in0.0 mm 0.01 in0.3 mm
01:15 PM 51.8°F11.0°C 48.0°F8.9°C 87% 6.0 mph ENE9.7 kmh ENE -- 29.99 in1015.6 mb 0.00 in0.0 mm 0.00 in0.0 mm 0.01 in0.3 mm
01:20 PM 51.8°F11.0°C 48.0°F8.9°C 87% 3.0 mph NE4.8 kmh NE -- 29.99 in1015.6 mb 0.00 in0.0 mm 0.00 in0.0 mm 0.01 in0.3 mm
01:25 PM 51.8°F11.0°C 47.7°F8.7°C 86% 2.0 mph NE3.2 kmh NE -- 29.99 in1015.6 mb 0.00 in0.0 mm 0.00 in0.0 mm 0.01 in0.3 mm
01:30 PM 52.0°F11.1°C 47.8°F8.8°C 86% 2.0 mph ENE3.2 kmh ENE -- 29.99 in1015.6 mb 0.00 in0.0 mm 0.00 in0.0 mm 0.01 in0.3 mm
01:35 PM 52.0°F11.1°C 47.8°F8.8°C 86% 3.0 mph NE4.8 kmh NE 5.0 mph8.0 kmh 29.99 in1015.6 mb 0.00 in0.0 mm 0.00 in0.0 mm 0.01 in0.3 mm
01:40 PM 52.1°F11.2°C 47.8°F8.8°C 85% 2.0 mph NNE3.2 kmh NNE -- 29.99 in1015.6 mb 0.00 in0.0 mm 0.00 in0.0 mm 0.01 in0.3 mm
01:45 PM 52.2°F11.2°C 47.8°F8.8°C 85% 4.0 mph NE6.4 kmh NE -- 29.99 in1015.6 mb 0.00 in0.0 mm 0.00 in0.0 mm 0.01 in0.3 mm
01:50 PM 52.2°F11.2°C 47.8°F8.8°C 85% 2.0 mph NE3.2 kmh NE -- 29.99 in1015.6 mb 0.00 in0.0 mm 0.00 in0.0 mm 0.01 in0.3 mm
01:55 PM 52.2°F11.2°C 47.5°F8.6°C 84% 3.0 mph NE4.8 kmh NE -- 29.99 in1015.6 mb 0.00 in0.0 mm 0.00 in0.0 mm 0.01 in0.3 mm
02:00 PM 52.2°F11.2°C 47.5°F8.6°C 84% 3.0 mph NE4.8 kmh NE 7.0 mph11.3 kmh 29.99 in1015.6 mb 0.00 in0.0 mm 0.00 in0.0 mm 0.01 in0.3 mm
02:05 PM 52.2°F11.2°C 47.5°F8.6°C 84% 6.0 mph NNE9.7 kmh NNE -- 29.99 in1015.6 mb 0.00 in0.0 mm 0.00 in0.0 mm 0.01 in0.3 mm
02:10 PM 52.3°F11.3°C 47.7°F8.7°C 84% 1.0 mph NNE1.6 kmh NNE -- 29.99 in1015.6 mb 0.00 in0.0 mm 0.00 in0.0 mm 0.01 in0.3 mm
02:15 PM 52.3°F11.3°C 47.7°F8.7°C 84% 3.0 mph NE4.8 kmh NE -- 29.98 in1015.2 mb 0.00 in0.0 mm 0.00 in0.0 mm 0.01 in0.3 mm
02:20 PM 52.3°F11.3°C 47.7°F8.7°C 84% 1.0 mph NNE1.6 kmh NNE -- 29.98 in1015.2 mb 0.00 in0.0 mm 0.00 in0.0 mm 0.01 in0.3 mm
02:25 PM 52.4°F11.3°C 47.7°F8.7°C 84% 3.0 mph NNE4.8 kmh NNE 5.0 mph8.0 kmh 29.98 in1015.2 mb 0.00 in0.0 mm 0.00 in0.0 mm 0.01 in0.3 mm
02:30 PM 52.4°F11.3°C 47.7°F8.7°C 84% 2.0 mph NNE3.2 kmh NNE -- 29.98 in1015.2 mb 0.00 in0.0 mm 0.00 in0.0 mm 0.01 in0.3 mm
02:35 PM 52.4°F11.3°C 48.0°F8.9°C 85% 2.0 mph NE3.2 kmh NE -- 29.98 in1015.2 mb 0.00 in0.0 mm 0.00 in0.0 mm 0.01 in0.3 mm
02:40 PM 52.4°F11.3°C 47.7°F8.7°C 84% 3.0 mph NE4.8 kmh NE -- 29.98 in1015.2 mb 0.00 in0.0 mm 0.00 in0.0 mm 0.01 in0.3 mm
02:45 PM 52.4°F11.3°C 47.7°F8.7°C 84% 2.0 mph NE3.2 kmh NE -- 29.98 in1015.2 mb 0.00 in0.0 mm 0.00 in0.0 mm 0.01 in0.3 mm
02:50 PM 52.4°F11.3°C 47.7°F8.7°C 84% 2.0 mph NE3.2 kmh NE 5.0 mph8.0 kmh 29.98 in1015.2 mb 0.00 in0.0 mm 0.00 in0.0 mm 0.01 in0.3 mm
02:55 PM 52.3°F11.3°C 47.7°F8.7°C 84% 2.0 mph NE3.2 kmh NE -- 29.98 in1015.2 mb 0.00 in0.0 mm 0.00 in0.0 mm 0.01 in0.3 mm
03:00 PM 52.3°F11.3°C 47.7°F8.7°C 84% 4.0 mph NE6.4 kmh NE -- 29.98 in1015.2 mb 0.00 in0.0 mm 0.00 in0.0 mm 0.01 in0.3 mm
03:05 PM 52.4°F11.3°C 47.7°F8.7°C 84% 3.0 mph NE4.8 kmh NE -- 29.98 in1015.2 mb 0.00 in0.0 mm 0.00 in0.0 mm 0.01 in0.3 mm
03:10 PM 52.5°F11.4°C 47.8°F8.8°C 84% 2.0 mph NE3.2 kmh NE -- 29.98 in1015.2 mb 0.00 in0.0 mm 0.00 in0.0 mm 0.01 in0.3 mm
03:15 PM 52.7°F11.5°C 48.0°F8.9°C 84% Calm Calm 4.0 mph6.4 kmh 29.98 in1015.2 mb 0.00 in0.0 mm 0.00 in0.0 mm 0.01 in0.3 mm
03:20 PM 52.9°F11.6°C 47.8°F8.8°C 83% 1.0 mph N1.6 kmh N -- 29.98 in1015.2 mb 0.00 in0.0 mm 0.00 in0.0 mm 0.01 in0.3 mm
03:25 PM 52.9°F11.6°C 47.8°F8.8°C 83% 4.0 mph N6.4 kmh N -- 29.98 in1015.2 mb 0.00 in0.0 mm 0.00 in0.0 mm 0.01 in0.3 mm
03:30 PM 52.8°F11.6°C 47.8°F8.8°C 83% 2.0 mph NNE3.2 kmh NNE -- 29.98 in1015.2 mb 0.00 in0.0 mm 0.00 in0.0 mm 0.01 in0.3 mm
03:35 PM 52.7°F11.5°C 47.7°F8.7°C 83% 1.0 mph NNE1.6 kmh NNE -- 29.98 in1015.2 mb 0.00 in0.0 mm 0.00 in0.0 mm 0.01 in0.3 mm
03:40 PM 52.6°F11.4°C 47.5°F8.6°C 83% 2.0 mph NNE3.2 kmh NNE 7.0 mph11.3 kmh 29.98 in1015.2 mb 0.00 in0.0 mm 0.00 in0.0 mm 0.01 in0.3 mm
03:45 PM 52.4°F11.3°C 47.3°F8.5°C 83% 3.0 mph NNE4.8 kmh NNE -- 29.98 in1015.2 mb 0.00 in0.0 mm 0.00 in0.0 mm 0.01 in0.3 mm
03:50 PM 52.3°F11.3°C 47.7°F8.7°C 84% 4.0 mph NNE6.4 kmh NNE -- 29.98 in1015.2 mb 0.00 in0.0 mm 0.00 in0.0 mm 0.01 in0.3 mm
03:55 PM 52.2°F11.2°C 47.5°F8.6°C 84% 3.0 mph NNE4.8 kmh NNE -- 29.98 in1015.2 mb 0.00 in0.0 mm 0.00 in0.0 mm 0.01 in0.3 mm
04:00 PM 52.1°F11.2°C 47.5°F8.6°C 84% 1.0 mph NNE1.6 kmh NNE -- 29.98 in1015.2 mb 0.00 in0.0 mm 0.00 in0.0 mm 0.01 in0.3 mm
04:05 PM 52.1°F11.2°C 47.5°F8.6°C 84% 1.0 mph NNE1.6 kmh NNE 6.0 mph9.7 kmh 29.98 in1015.2 mb 0.00 in0.0 mm 0.00 in0.0 mm 0.01 in0.3 mm
04:10 PM 52.0°F11.1°C 47.3°F8.5°C 84% Calm Calm -- 29.98 in1015.2 mb 0.00 in0.0 mm 0.00 in0.0 mm 0.01 in0.3 mm
04:15 PM 51.5°F10.8°C 46.8°F8.2°C 84% Calm Calm -- 29.98 in1015.2 mb 0.00 in0.0 mm 0.00 in0.0 mm 0.01 in0.3 mm
04:20 PM 50.9°F10.5°C 46.6°F8.1°C 85% 2.0 mph NNE3.2 kmh NNE -- 29.98 in1015.2 mb 0.00 in0.0 mm 0.00 in0.0 mm 0.01 in0.3 mm
04:25 PM 50.2°F10.1°C 46.2°F7.9°C 86% 1.0 mph NNE1.6 kmh NNE -- 29.98 in1015.2 mb 0.00 in0.0 mm 0.00 in0.0 mm 0.01 in0.3 mm
04:30 PM 49.9°F9.9°C 46.0°F7.8°C 87% 2.0 mph N3.2 kmh N 3.0 mph4.8 kmh 29.98 in1015.2 mb 0.00 in0.0 mm 0.00 in0.0 mm 0.01 in0.3 mm
04:35 PM 49.5°F9.7°C 46.0°F7.8°C 88% 2.0 mph N3.2 kmh N -- 29.98 in1015.2 mb 0.00 in0.0 mm 0.00 in0.0 mm 0.01 in0.3 mm
04:40 PM 49.5°F9.7°C 46.4°F8.0°C 89% 1.0 mph N1.6 kmh N -- 29.98 in1015.2 mb 0.00 in0.0 mm 0.00 in0.0 mm 0.01 in0.3 mm
04:45 PM 49.6°F9.8°C 46.2°F7.9°C 88% 2.0 mph N3.2 kmh N -- 29.98 in1015.2 mb 0.00 in0.0 mm 0.00 in0.0 mm 0.01 in0.3 mm
04:50 PM 49.7°F9.8°C 46.6°F8.1°C 89% 1.0 mph N1.6 kmh N -- 29.98 in1015.2 mb 0.00 in0.0 mm 0.00 in0.0 mm 0.01 in0.3 mm
04:55 PM 49.8°F9.9°C 46.8°F8.2°C 89% 3.0 mph N4.8 kmh N 4.0 mph6.4 kmh 29.98 in1015.2 mb 0.00 in0.0 mm 0.00 in0.0 mm 0.01 in0.3 mm
05:00 PM 50.1°F10.1°C 47.1°F8.4°C 89% 2.0 mph N3.2 kmh N -- 29.98 in1015.2 mb 0.00 in0.0 mm 0.00 in0.0 mm 0.01 in0.3 mm
05:05 PM 49.8°F9.9°C 46.8°F8.2°C 89% 2.0 mph N3.2 kmh N -- 29.98 in1015.2 mb 0.00 in0.0 mm 0.00 in0.0 mm 0.01 in0.3 mm
05:10 PM 50.0°F10.0°C 46.9°F8.3°C 89% 1.0 mph N1.6 kmh N -- 29.98 in1015.2 mb 0.00 in0.0 mm 0.00 in0.0 mm 0.01 in0.3 mm
05:15 PM 50.1°F10.1°C 47.3°F8.5°C 90% Calm Calm -- 29.98 in1015.2 mb 0.00 in0.0 mm 0.00 in0.0 mm 0.01 in0.3 mm
05:20 PM 50.3°F10.2°C 47.5°F8.6°C 90% 1.0 mph W1.6 kmh W 6.0 mph9.7 kmh 29.98 in1015.2 mb 0.00 in0.0 mm 0.00 in0.0 mm 0.01 in0.3 mm
05:25 PM 50.1°F10.1°C 47.1°F8.4°C 89% 1.0 mph W1.6 kmh W -- 29.97 in1014.9 mb 0.00 in0.0 mm 0.00 in0.0 mm 0.01 in0.3 mm
05:30 PM 49.9°F9.9°C 46.9°F8.3°C 90% 2.0 mph W3.2 kmh W -- 29.98 in1015.2 mb 0.00 in0.0 mm 0.00 in0.0 mm 0.01 in0.3 mm
05:35 PM 50.1°F10.1°C 47.3°F8.5°C 90% 1.0 mph W1.6 kmh W -- 29.97 in1014.9 mb 0.00 in0.0 mm 0.00 in0.0 mm 0.01 in0.3 mm
05:40 PM 50.1°F10.1°C 47.3°F8.5°C 90% Calm Calm -- 29.97 in1014.9 mb 0.00 in0.0 mm 0.00 in0.0 mm 0.01 in0.3 mm
05:45 PM 50.0°F10.0°C 46.9°F8.3°C 89% 3.0 mph W4.8 kmh W 5.0 mph8.0 kmh 29.97 in1014.9 mb 0.00 in0.0 mm 0.00 in0.0 mm 0.01 in0.3 mm
05:50 PM 49.8°F9.9°C 46.8°F8.2°C 89% 1.0 mph W1.6 kmh W -- 29.97 in1014.9 mb 0.00 in0.0 mm 0.00 in0.0 mm 0.01 in0.3 mm
05:55 PM 49.5°F9.7°C 46.6°F8.1°C 90% 3.0 mph W4.8 kmh W -- 29.97 in1014.9 mb 0.00 in0.0 mm 0.00 in0.0 mm 0.01 in0.3 mm
06:00 PM 49.8°F9.9°C 46.9°F8.3°C 90% 3.0 mph WNW4.8 kmh WNW -- 29.97 in1014.9 mb 0.00 in0.0 mm 0.00 in0.0 mm 0.01 in0.3 mm
06:05 PM 49.5°F9.7°C 46.6°F8.1°C 90% 2.0 mph WNW3.2 kmh WNW -- 29.97 in1014.9 mb 0.00 in0.0 mm 0.00 in0.0 mm 0.01 in0.3 mm
06:10 PM 49.4°F9.7°C 46.6°F8.1°C 90% 1.0 mph WNW1.6 kmh WNW 4.0 mph6.4 kmh 29.97 in1014.9 mb 0.00 in0.0 mm 0.00 in0.0 mm 0.01 in0.3 mm
06:15 PM 49.4°F9.7°C 46.6°F8.1°C 90% 2.0 mph WNW3.2 kmh WNW -- 29.97 in1014.9 mb 0.00 in0.0 mm 0.00 in0.0 mm 0.01 in0.3 mm
06:20 PM 49.2°F9.6°C 46.8°F8.2°C 91% 2.0 mph WNW3.2 kmh WNW -- 29.97 in1014.9 mb 0.00 in0.0 mm 0.00 in0.0 mm 0.01 in0.3 mm
06:25 PM 48.8°F9.3°C 45.9°F7.7°C 90% 2.0 mph WNW3.2 kmh WNW -- 29.97 in1014.9 mb 0.00 in0.0 mm 0.00 in0.0 mm 0.01 in0.3 mm
06:30 PM 48.7°F9.3°C 46.2°F7.9°C 91% 3.0 mph WNW4.8 kmh WNW -- 29.97 in1014.9 mb 0.00 in0.0 mm 0.00 in0.0 mm 0.01 in0.3 mm
06:35 PM 48.5°F9.2°C 46.0°F7.8°C 91% 2.0 mph WNW3.2 kmh WNW 5.0 mph8.0 kmh 29.97 in1014.9 mb 0.00 in0.0 mm 0.00 in0.0 mm 0.01 in0.3 mm
06:40 PM 48.5°F9.2°C 46.4°F8.0°C 92% 2.0 mph WNW3.2 kmh WNW -- 29.97 in1014.9 mb 0.00 in0.0 mm 0.00 in0.0 mm 0.01 in0.3 mm
06:45 PM 48.5°F9.2°C 46.4°F8.0°C 92% 2.0 mph WNW3.2 kmh WNW -- 29.97 in1014.9 mb 0.00 in0.0 mm 0.00 in0.0 mm 0.01 in0.3 mm
06:50 PM 48.3°F9.1°C 46.2°F7.9°C 92% 3.0 mph WNW4.8 kmh WNW -- 29.97 in1014.9 mb 0.00 in0.0 mm 0.00 in0.0 mm 0.01 in0.3 mm
06:55 PM 48.2°F9.0°C 46.0°F7.8°C 92% 3.0 mph WNW4.8 kmh WNW -- 29.97 in1014.9 mb 0.00 in0.0 mm 0.00 in0.0 mm 0.01 in0.3 mm
07:00 PM 48.0°F8.9°C 45.9°F7.7°C 92% 2.0 mph WNW3.2 kmh WNW 4.0 mph6.4 kmh 29.97 in1014.9 mb 0.00 in0.0 mm 0.00 in0.0 mm 0.01 in0.3 mm
07:05 PM 47.6°F8.7°C 45.5°F7.5°C 92% 3.0 mph WNW4.8 kmh WNW -- 29.97 in1014.9 mb 0.00 in0.0 mm 0.00 in0.0 mm 0.01 in0.3 mm
07:10 PM 47.5°F8.6°C 45.3°F7.4°C 92% 3.0 mph WNW4.8 kmh WNW -- 29.97 in1014.9 mb 0.00 in0.0 mm 0.00 in0.0 mm 0.01 in0.3 mm
07:15 PM 48.0°F8.9°C 46.0°F7.8°C 93% 4.0 mph WNW6.4 kmh WNW -- 29.97 in1014.9 mb 0.00 in0.0 mm 0.00 in0.0 mm 0.01 in0.3 mm
07:20 PM 48.4°F9.1°C 46.4°F8.0°C 93% 2.0 mph WNW3.2 kmh WNW -- 29.97 in1014.9 mb 0.00 in0.0 mm 0.00 in0.0 mm 0.01 in0.3 mm
07:25 PM 48.4°F9.1°C 46.4°F8.0°C 93% 2.0 mph WNW3.2 kmh WNW 5.0 mph8.0 kmh 29.97 in1014.9 mb 0.00 in0.0 mm 0.00 in0.0 mm 0.01 in0.3 mm
07:30 PM 48.4°F9.1°C 46.4°F8.0°C 93% 5.0 mph WNW8.0 kmh WNW -- 29.97 in1014.9 mb 0.00 in0.0 mm 0.00 in0.0 mm 0.01 in0.3 mm
07:35 PM 48.5°F9.2°C 46.6°F8.1°C 93% 3.0 mph WNW4.8 kmh WNW -- 29.97 in1014.9 mb 0.00 in0.0 mm 0.00 in0.0 mm 0.01 in0.3 mm
07:40 PM 49.0°F9.4°C 47.3°F8.5°C 94% 3.0 mph WNW4.8 kmh WNW -- 29.97 in1014.9 mb 0.00 in0.0 mm 0.00 in0.0 mm 0.01 in0.3 mm
07:45 PM 49.0°F9.4°C 46.9°F8.3°C 93% 3.0 mph WNW4.8 kmh WNW -- 29.97 in1014.9 mb 0.00 in0.0 mm 0.00 in0.0 mm 0.01 in0.3 mm
07:50 PM 49.0°F9.4°C 46.9°F8.3°C 93% 3.0 mph WNW4.8 kmh WNW 5.0 mph8.0 kmh 29.97 in1014.9 mb 0.00 in0.0 mm 0.00 in0.0 mm 0.01 in0.3 mm
07:55 PM 49.1°F9.5°C 47.1°F8.4°C 93% 2.0 mph WNW3.2 kmh WNW -- 29.97 in1014.9 mb 0.00 in0.0 mm 0.00 in0.0 mm 0.01 in0.3 mm
08:00 PM 49.0°F9.4°C 46.9°F8.3°C 93% 1.0 mph WNW1.6 kmh WNW -- 29.97 in1014.9 mb 0.00 in0.0 mm 0.00 in0.0 mm 0.01 in0.3 mm
08:05 PM 49.0°F9.4°C 46.9°F8.3°C 93% 1.0 mph WNW1.6 kmh WNW -- 29.97 in1014.9 mb 0.00 in0.0 mm 0.00 in0.0 mm 0.01 in0.3 mm
08:10 PM 48.8°F9.3°C 46.8°F8.2°C 93% Calm Calm -- 29.97 in1014.9 mb 0.00 in0.0 mm 0.00 in0.0 mm 0.01 in0.3 mm
08:15 PM 48.7°F9.3°C 46.8°F8.2°C 93% 1.0 mph WNW1.6 kmh WNW 4.0 mph6.4 kmh 29.97 in1014.9 mb 0.00 in0.0 mm 0.00 in0.0 mm 0.01 in0.3 mm
08:20 PM 48.7°F9.3°C 46.8°F8.2°C 93% 1.0 mph WNW1.6 kmh WNW -- 29.97 in1014.9 mb 0.00 in0.0 mm 0.00 in0.0 mm 0.01 in0.3 mm
08:25 PM 48.7°F9.3°C 46.8°F8.2°C 93% Calm Calm -- 29.97 in1014.9 mb 0.00 in0.0 mm 0.00 in0.0 mm 0.01 in0.3 mm
08:30 PM 48.5°F9.2°C 46.6°F8.1°C 93% 1.0 mph WNW1.6 kmh WNW -- 29.97 in1014.9 mb 0.00 in0.0 mm 0.00 in0.0 mm 0.01 in0.3 mm
08:35 PM 48.6°F9.2°C 46.6°F8.1°C 93% Calm Calm -- 29.96 in1014.6 mb 0.00 in0.0 mm 0.00 in0.0 mm 0.01 in0.3 mm
08:40 PM 48.6°F9.2°C 46.6°F8.1°C 93% Calm Calm 2.0 mph3.2 kmh 29.96 in1014.6 mb 0.00 in0.0 mm 0.00 in0.0 mm 0.01 in0.3 mm
08:45 PM 48.6°F9.2°C 46.9°F8.3°C 94% Calm Calm -- 29.97 in1014.9 mb 0.00 in0.0 mm 0.00 in0.0 mm 0.01 in0.3 mm
08:50 PM 48.7°F9.3°C 47.1°F8.4°C 94% Calm Calm -- 29.97 in1014.9 mb 0.00 in0.0 mm 0.00 in0.0 mm 0.01 in0.3 mm
08:55 PM 48.8°F9.3°C 47.1°F8.4°C 94% Calm Calm -- 29.97 in1014.9 mb 0.00 in0.0 mm 0.00 in0.0 mm 0.01 in0.3 mm
09:00 PM 48.9°F9.4°C 47.3°F8.5°C 94% 2.0 mph WNW3.2 kmh WNW -- 29.97 in1014.9 mb 0.00 in0.0 mm 0.00 in0.0 mm 0.01 in0.3 mm
09:05 PM 49.0°F9.4°C 47.3°F8.5°C 94% 2.0 mph WNW3.2 kmh WNW 4.0 mph6.4 kmh 29.96 in1014.6 mb 0.00 in0.0 mm 0.00 in0.0 mm 0.01 in0.3 mm
09:10 PM 49.1°F9.5°C 47.5°F8.6°C 94% Calm Calm -- 29.97 in1014.9 mb 0.00 in0.0 mm 0.00 in0.0 mm 0.01 in0.3 mm
09:15 PM 49.1°F9.5°C 47.5°F8.6°C 94% Calm Calm -- 29.96 in1014.6 mb 0.00 in0.0 mm 0.00 in0.0 mm 0.01 in0.3 mm
09:20 PM 49.0°F9.4°C 47.3°F8.5°C 94% 1.0 mph WNW1.6 kmh WNW -- 29.96 in1014.6 mb 0.00 in0.0 mm 0.00 in0.0 mm 0.01 in0.3 mm
09:25 PM 49.0°F9.4°C 47.3°F8.5°C 94% Calm Calm -- 29.96 in1014.6 mb 0.00 in0.0 mm 0.00 in0.0 mm 0.01 in0.3 mm
09:30 PM 48.9°F9.4°C 47.3°F8.5°C 94% 1.0 mph WNW1.6 kmh WNW 4.0 mph6.4 kmh 29.96 in1014.6 mb 0.00 in0.0 mm 0.00 in0.0 mm 0.01 in0.3 mm
09:35 PM 48.7°F9.3°C 46.8°F8.2°C 93% 1.0 mph WNW1.6 kmh WNW -- 29.96 in1014.6 mb 0.00 in0.0 mm 0.00 in0.0 mm 0.01 in0.3 mm
09:40 PM 48.3°F9.1°C 46.4°F8.0°C 93% 1.0 mph WNW1.6 kmh WNW -- 29.96 in1014.6 mb 0.00 in0.0 mm 0.00 in0.0 mm 0.01 in0.3 mm
09:45 PM 48.2°F9.0°C 46.2°F7.9°C 93% 1.0 mph WNW1.6 kmh WNW -- 29.96 in1014.6 mb 0.00 in0.0 mm 0.00 in0.0 mm 0.01 in0.3 mm
09:50 PM 48.2°F9.0°C 46.2°F7.9°C 93% Calm Calm -- 29.96 in1014.6 mb 0.00 in0.0 mm 0.00 in0.0 mm 0.01 in0.3 mm
09:55 PM 48.2°F9.0°C 46.6°F8.1°C 94% Calm Calm 3.0 mph4.8 kmh 29.96 in1014.6 mb 0.00 in0.0 mm 0.00 in0.0 mm 0.01 in0.3 mm
10:00 PM 48.4°F9.1°C 46.8°F8.2°C 94% 1.0 mph WNW1.6 kmh WNW -- 29.96 in1014.6 mb 0.00 in0.0 mm 0.00 in0.0 mm 0.01 in0.3 mm
10:05 PM 48.6°F9.2°C 46.9°F8.3°C 94% Calm Calm -- 29.96 in1014.6 mb 0.00 in0.0 mm 0.00 in0.0 mm 0.01 in0.3 mm
10:10 PM 48.8°F9.3°C 47.1°F8.4°C 94% Calm Calm -- 29.96 in1014.6 mb 0.00 in0.0 mm 0.00 in0.0 mm 0.01 in0.3 mm
10:15 PM 48.8°F9.3°C 47.1°F8.4°C 94% 3.0 mph WNW4.8 kmh WNW -- 29.96 in1014.6 mb 0.00 in0.0 mm 0.00 in0.0 mm 0.01 in0.3 mm
10:20 PM 48.8°F9.3°C 47.1°F8.4°C 94% 2.0 mph WNW3.2 kmh WNW 3.0 mph4.8 kmh 29.96 in1014.6 mb 0.00 in0.0 mm 0.00 in0.0 mm 0.01 in0.3 mm
10:25 PM 49.0°F9.4°C 47.3°F8.5°C 94% 2.0 mph WNW3.2 kmh WNW -- 29.96 in1014.6 mb 0.00 in0.0 mm 0.00 in0.0 mm 0.01 in0.3 mm
10:30 PM 49.1°F9.5°C 47.5°F8.6°C 94% 2.0 mph WNW3.2 kmh WNW -- 29.96 in1014.6 mb 0.00 in0.0 mm 0.00 in0.0 mm 0.01 in0.3 mm
10:35 PM 49.1°F9.5°C 47.5°F8.6°C 94% 2.0 mph WNW3.2 kmh WNW -- 29.96 in1014.6 mb 0.00 in0.0 mm 0.00 in0.0 mm 0.01 in0.3 mm
10:40 PM 48.9°F9.4°C 47.3°F8.5°C 94% 1.0 mph WNW1.6 kmh WNW -- 29.96 in1014.6 mb 0.00 in0.0 mm 0.00 in0.0 mm 0.01 in0.3 mm
10:45 PM 48.7°F9.3°C 47.1°F8.4°C 94% 3.0 mph WNW4.8 kmh WNW 5.0 mph8.0 kmh 29.96 in1014.6 mb 0.00 in0.0 mm 0.00 in0.0 mm 0.01 in0.3 mm
10:50 PM 48.6°F9.2°C 46.9°F8.3°C 94% 3.0 mph WNW4.8 kmh WNW -- 29.96 in1014.6 mb 0.00 in0.0 mm 0.00 in0.0 mm 0.01 in0.3 mm
10:55 PM 48.6°F9.2°C 46.9°F8.3°C 94% 4.0 mph WNW6.4 kmh WNW -- 29.96 in1014.6 mb 0.00 in0.0 mm 0.00 in0.0 mm 0.01 in0.3 mm
11:00 PM 48.6°F9.2°C 46.9°F8.3°C 94% 2.0 mph WNW3.2 kmh WNW -- 29.96 in1014.6 mb 0.00 in0.0 mm 0.00 in0.0 mm 0.01 in0.3 mm
11:05 PM 48.5°F9.2°C 46.9°F8.3°C 94% 4.0 mph WNW6.4 kmh WNW -- 29.96 in1014.6 mb 0.00 in0.0 mm 0.00 in0.0 mm 0.01 in0.3 mm
11:10 PM 48.5°F9.2°C 46.9°F8.3°C 94% 2.0 mph WNW3.2 kmh WNW 6.0 mph9.7 kmh 29.96 in1014.6 mb 0.00 in0.0 mm 0.00 in0.0 mm 0.01 in0.3 mm
11:15 PM 48.4°F9.1°C 46.8°F8.2°C 94% 2.0 mph WNW3.2 kmh WNW -- 29.96 in1014.6 mb 0.00 in0.0 mm 0.00 in0.0 mm 0.01 in0.3 mm
11:20 PM 48.2°F9.0°C 46.6°F8.1°C 94% 4.0 mph WNW6.4 kmh WNW -- 29.96 in1014.6 mb 0.00 in0.0 mm 0.00 in0.0 mm 0.01 in0.3 mm
11:25 PM 48.2°F9.0°C 46.6°F8.1°C 94% 3.0 mph WNW4.8 kmh WNW -- 29.96 in1014.6 mb 0.00 in0.0 mm 0.00 in0.0 mm 0.01 in0.3 mm
11:30 PM 48.3°F9.1°C 46.8°F8.2°C 94% 3.0 mph WNW4.8 kmh WNW -- 29.96 in1014.6 mb 0.00 in0.0 mm 0.00 in0.0 mm 0.01 in0.3 mm
11:35 PM 48.2°F9.0°C 46.6°F8.1°C 94% 2.0 mph WNW3.2 kmh WNW 6.0 mph9.7 kmh 29.95 in1014.2 mb 0.00 in0.0 mm 0.00 in0.0 mm 0.01 in0.3 mm
11:40 PM 48.0°F8.9°C 46.4°F8.0°C 94% 5.0 mph WNW8.0 kmh WNW -- 29.96 in1014.6 mb 0.00 in0.0 mm 0.00 in0.0 mm 0.01 in0.3 mm
11:45 PM 47.8°F8.8°C 46.2°F7.9°C 94% 4.0 mph WNW6.4 kmh WNW -- 29.96 in1014.6 mb 0.00 in0.0 mm 0.00 in0.0 mm 0.01 in0.3 mm
11:50 PM 48.0°F8.9°C 46.4°F8.0°C 94% 3.0 mph WNW4.8 kmh WNW -- 29.96 in1014.6 mb 0.00 in0.0 mm 0.00 in0.0 mm 0.01 in0.3 mm
11:55 PM 47.9°F8.8°C 46.2°F7.9°C 94% 3.0 mph WNW4.8 kmh WNW -- 29.96 in1014.6 mb 0.00 in0.0 mm 0.00 in0.0 mm 0.01 in0.3 mm